Forest Ranch, CA (95942)

8:35 AM PST on February 07, 2016 (GMT -0800)
Headwaters Rd | | Change Station
CLOSE
Current Station
Personal Weather Station
Location: Forest Ranch, CA
Elevation: 3130 ft
Nearby Weather Stations

Elev 3130 ft 39.91 °N, 121.65 °W | Updated 12 minutes ago

Partly Cloudy
Partly Cloudy
50.2 °F
Feels Like 50.2 °F
N
1.7
Wind Variable Wind from NE

Today
High -- | Low -- °F
--% Chance of Precip.
Yesterday
High -- | Low -- °F
Precip. -- in
Pressure 30.32 in
Visibility 40.0 miles
Clouds Scattered Clouds 20000 ft
Dew Point 36 °F
Humidity 58%
Rainfall 0.00 in
Snow Depth Not available.
7:09 AM 5:31 PM
Waning Crescent, 1% visible
METAR KCIC 071550Z 34005KT 40SM SCT200 07/04 A3032
Pressure 30.32 in
Visibility 40.0 miles
Clouds Scattered Clouds 20000 ft
Dew Point 36 °F
Humidity 58%
Rainfall 0.00 in
Snow Depth Not available.
7:09 AM 5:31 PM
Waning Crescent, 1% visible
METAR KCIC 071550Z 34005KT 40SM SCT200 07/04 A3032

10-Day Weather Forecast

Almanac

Astronomy

Feb. 07, 2016 Rise Set
Actual Time
Civil Twilight
Nautical Twilight
Astronomical Twilight
Moon
Length of Visible Light
Length of Day
Tomorrow will be .
, % of the Moon is Illuminated

Today's Extremes

State Highs State Lows

Community

WunderPhotos

Upload Photos

1,891,228 photos uploaded!

WunderBlog® & News

Nearby

Air Quality

  Air Quality AQ Index Pollutant
Not available.

Snow Depth

Station Depth Elevation

Earthquake Activity

City Distance Mag. Time & Date
Minimum magnitude displayed is 2.5.

Coastal Water Temperatures

Place Temperature

Stations

Nearby Weather Stations

Station Location Temp. Windchill Dew Point Humidity Wind Precip. Elev Updated Type
                   

Watches & Warnings

There are currently no watches in effect.